Time;durP1;ratioP1;P1;durP2;ratioP2;P2;SDS_P1;SDS_P2;PMS_P1;PMS_P2;Temp;Humidity;BMP_temperature;BMP_pressure;BME280_temperature;BME280_humidity;BME280_pressure;Samples;Min_cycle;Max_cycle;Signal;HPM_P1;HPM_P2
2023/06/28 00:01:12;;;;;;;4.97;2.00;;;25.00;49.80;;;;;;5029336;28;20206;-74
2023/06/28 00:03:39;;;;;;;2.23;1.90;;;25.00;49.90;;;;;;5016677;28;20678;-74
2023/06/28 00:06:07;;;;;;;2.77;1.80;;;25.00;49.80;;;;;;5027578;28;20611;-76
2023/06/28 00:08:34;;;;;;;3.43;2.30;;;24.90;49.80;;;;;;5017232;28;20225;-74
2023/06/28 00:11:01;;;;;;;3.00;1.93;;;24.80;50.10;;;;;;5027681;28;20744;-75
2023/06/28 00:13:28;;;;;;;4.17;2.13;;;24.80;50.20;;;;;;5030453;28;20205;-75
2023/06/28 00:15:55;;;;;;;2.40;1.80;;;24.80;50.30;;;;;;5014024;28;20215;-74
2023/06/28 00:18:21;;;;;;;4.07;2.00;;;24.80;50.10;;;;;;5002935;28;20230;-74
2023/06/28 00:20:49;;;;;;;3.87;2.10;;;24.80;49.70;;;;;;5006205;28;20257;-73
2023/06/28 00:23:18;;;;;;;3.60;2.07;;;24.80;49.20;;;;;;5020349;28;20219;-74
2023/06/28 00:25:44;;;;;;;3.50;2.23;;;24.80;49.20;;;;;;5025526;28;20195;-74
2023/06/28 00:28:11;;;;;;;2.70;2.10;;;24.70;49.20;;;;;;5024696;28;20240;-73
2023/06/28 00:30:38;;;;;;;4.07;2.17;;;24.60;49.20;;;;;;5024670;28;20215;-74
2023/06/28 00:33:05;;;;;;;5.20;2.17;;;24.60;49.30;;;;;;5013803;28;20222;-75
2023/06/28 00:35:32;;;;;;;3.23;2.03;;;24.60;50.10;;;;;;5019008;28;20603;-74
2023/06/28 00:37:58;;;;;;;2.73;2.00;;;24.60;49.50;;;;;;5033195;28;20226;-74
2023/06/28 00:40:26;;;;;;;5.77;2.40;;;24.50;49.60;;;;;;5023387;28;20221;-75
2023/06/28 00:42:53;;;;;;;2.77;1.90;;;24.40;50.00;;;;;;5021251;28;20198;-74
2023/06/28 00:45:20;;;;;;;4.03;1.80;;;24.40;50.50;;;;;;5018272;28;20230;-74
2023/06/28 00:47:48;;;;;;;7.80;2.00;;;24.30;50.60;;;;;;5013167;28;20575;-74
2023/06/28 00:50:15;;;;;;;2.20;2.00;;;24.30;51.10;;;;;;5024302;28;20202;-74
2023/06/28 00:52:42;;;;;;;3.13;1.90;;;24.30;50.80;;;;;;5033242;28;20198;-73
2023/06/28 00:55:10;;;;;;;3.57;2.00;;;24.30;50.90;;;;;;5032902;28;20198;-74
2023/06/28 00:57:38;;;;;;;2.60;1.70;;;24.30;50.90;;;;;;5032415;28;20587;-74
2023/06/28 01:00:08;;;;;;;4.73;2.40;;;24.30;50.60;;;;;;5018254;28;20211;-75
2023/06/28 01:02:34;;;;;;;2.63;2.03;;;24.30;50.50;;;;;;5025752;28;20699;-74
2023/06/28 01:05:03;;;;;;;3.10;1.90;;;24.30;50.70;;;;;;5025634;28;20225;-74
2023/06/28 01:07:36;;;;;;;4.03;1.97;;;24.30;50.60;;;;;;5019645;28;20198;-73
2023/06/28 01:10:04;;;;;;;4.80;2.03;;;24.30;50.90;;;;;;5028541;28;20195;-74
2023/06/28 01:12:31;;;;;;;3.73;1.83;;;24.40;51.00;;;;;;5032345;28;20219;-73
2023/06/28 01:14:59;;;;;;;2.93;2.03;;;24.30;51.00;;;;;;5028661;28;20198;-74
2023/06/28 01:17:26;;;;;;;4.23;2.03;;;24.30;51.20;;;;;;5013190;28;20214;-74
2023/06/28 01:19:54;;;;;;;3.67;1.90;;;24.40;51.20;;;;;;5015411;28;20227;-74
2023/06/28 01:22:21;;;;;;;2.83;1.90;;;24.40;51.60;;;;;;5012996;28;20195;-74
2023/06/28 01:24:49;;;;;;;3.20;1.90;;;24.30;51.70;;;;;;5013924;28;20237;-74
2023/06/28 01:27:16;;;;;;;2.80;2.17;;;24.40;52.00;;;;;;5032108;28;20201;-74
2023/06/28 01:29:43;;;;;;;2.97;1.80;;;24.40;52.40;;;;;;5014146;28;20229;-76
2023/06/28 01:32:11;;;;;;;2.70;2.20;;;24.40;52.80;;;;;;5024383;28;20589;-74
2023/06/28 01:34:37;;;;;;;4.13;2.40;;;24.30;53.60;;;;;;5022839;28;20589;-74
2023/06/28 01:37:06;;;;;;;2.93;2.13;;;24.30;54.70;;;;;;5036113;28;20305;-76
2023/06/28 01:39:34;;;;;;;4.00;2.10;;;24.30;55.90;;;;;;5026885;28;20238;-74
2023/06/28 01:42:03;;;;;;;3.50;2.07;;;24.30;56.70;;;;;;5014008;28;20576;-76
2023/06/28 01:44:30;;;;;;;4.60;2.13;;;24.20;57.30;;;;;;5013004;28;20225;-76
2023/06/28 01:46:57;;;;;;;4.33;2.40;;;24.10;57.20;;;;;;5012283;28;20221;-76
2023/06/28 01:49:25;;;;;;;5.93;2.00;;;24.10;57.30;;;;;;5013281;28;20595;-75
2023/06/28 01:51:53;;;;;;;2.77;2.07;;;24.00;57.70;;;;;;5014622;28;20972;-75
2023/06/28 01:54:20;;;;;;;4.23;1.90;;;24.00;57.90;;;;;;4994709;28;20199;-75
2023/06/28 01:56:47;;;;;;;2.87;2.30;;;24.00;58.10;;;;;;5031398;28;20202;-75
2023/06/28 01:59:15;;;;;;;3.83;2.20;;;23.90;58.10;;;;;;5031386;28;20226;-74
2023/06/28 02:01:44;;;;;;;2.57;2.10;;;23.90;58.60;;;;;;4982015;28;20211;-74
2023/06/28 02:04:11;;;;;;;3.27;2.10;;;23.80;58.60;;;;;;5012492;28;20306;-77
2023/06/28 02:06:40;;;;;;;3.27;2.10;;;23.80;58.70;;;;;;5029445;28;20203;-75
2023/06/28 02:09:07;;;;;;;3.63;2.00;;;23.80;59.30;;;;;;5031182;28;20602;-74
2023/06/28 02:11:34;;;;;;;6.23;2.70;;;23.80;59.20;;;;;;5030947;28;20230;-75
2023/06/28 02:14:01;;;;;;;3.70;2.47;;;23.80;59.20;;;;;;5031037;28;20205;-74
2023/06/28 02:16:31;;;;;;;3.33;2.50;;;23.70;59.60;;;;;;5020561;28;20207;-74
2023/06/28 02:18:58;;;;;;;4.03;2.10;;;23.70;60.40;;;;;;5030817;28;20226;-75
2023/06/28 02:21:25;;;;;;;2.97;2.30;;;23.60;60.40;;;;;;5029403;28;20195;-75
2023/06/28 02:23:52;;;;;;;2.93;2.17;;;23.60;60.60;;;;;;5027185;28;20199;-76
2023/06/28 02:26:18;;;;;;;3.73;2.30;;;23.60;61.10;;;;;;5027993;28;20214;-74
2023/06/28 02:28:46;;;;;;;2.97;2.03;;;23.60;61.50;;;;;;4992879;28;20226;-74
2023/06/28 02:31:13;;;;;;;4.53;2.63;;;23.60;62.20;;;;;;5018766;28;20717;-74
2023/06/28 02:33:41;;;;;;;3.37;2.37;;;23.60;62.30;;;;;;5030727;28;20202;-73
2023/06/28 02:36:08;;;;;;;2.73;2.27;;;23.50;61.90;;;;;;5030684;28;20554;-75
2023/06/28 02:38:35;;;;;;;2.80;2.40;;;23.50;61.80;;;;;;4997507;28;20314;-74
2023/06/28 02:41:02;;;;;;;3.73;2.40;;;23.50;61.20;;;;;;5016972;28;20548;-74
2023/06/28 02:43:29;;;;;;;4.90;2.50;;;23.40;61.20;;;;;;5031449;28;20215;-74
2023/06/28 02:45:55;;;;;;;3.50;2.20;;;23.30;61.80;;;;;;5028713;28;20195;-75
2023/06/28 02:48:22;;;;;;;3.47;2.20;;;23.20;62.20;;;;;;5030341;28;20210;-73
2023/06/28 02:50:50;;;;;;;3.83;2.40;;;23.20;61.90;;;;;;5011593;28;20234;-74
2023/06/28 02:53:17;;;;;;;3.23;2.17;;;23.10;61.80;;;;;;5011770;28;20639;-75
2023/06/28 02:55:44;;;;;;;3.23;2.20;;;23.00;61.70;;;;;;5011584;28;20214;-74
2023/06/28 02:58:13;;;;;;;5.07;2.57;;;22.90;61.30;;;;;;4994071;28;20231;-76
2023/06/28 03:00:41;;;;;;;4.47;2.20;;;22.90;61.80;;;;;;5011484;28;20556;-75
2023/06/28 03:03:09;;;;;;;3.83;2.43;;;22.90;60.70;;;;;;5011630;28;20261;-76
2023/06/28 03:05:36;;;;;;;3.73;2.60;;;23.00;61.70;;;;;;5011317;28;20231;-73
2023/06/28 03:08:05;;;;;;;4.53;3.07;;;23.00;61.70;;;;;;5011084;28;20207;-75
2023/06/28 03:10:33;;;;;;;3.23;2.13;;;23.00;61.50;;;;;;5014260;28;20226;-74
2023/06/28 03:12:59;;;;;;;2.53;2.20;;;23.00;61.70;;;;;;5028642;28;20297;-75
2023/06/28 03:15:26;;;;;;;3.17;2.43;;;23.00;61.70;;;;;;5018704;28;20203;-75
2023/06/28 03:17:53;;;;;;;3.97;2.43;;;23.00;61.70;;;;;;5021635;28;20280;-74
2023/06/28 03:20:20;;;;;;;3.57;2.30;;;23.00;61.70;;;;;;5043894;28;20242;-74
2023/06/28 03:22:47;;;;;;;4.87;2.37;;;23.10;62.60;;;;;;5028060;28;20292;-74
2023/06/28 03:25:16;;;;;;;4.17;2.67;;;23.10;61.20;;;;;;5031150;28;20230;-74
2023/06/28 03:27:43;;;;;;;3.20;2.20;;;23.00;61.70;;;;;;5031111;28;20211;-74
2023/06/28 03:30:10;;;;;;;3.03;2.20;;;23.00;61.60;;;;;;5029377;28;20712;-75
2023/06/28 03:32:38;;;;;;;2.90;2.30;;;23.00;61.70;;;;;;4976768;28;20199;-74
2023/06/28 03:35:06;;;;;;;2.43;2.10;;;23.10;62.00;;;;;;5032660;28;20218;-75
2023/06/28 03:37:32;;;;;;;3.63;2.30;;;23.00;62.50;;;;;;5034164;28;20245;-74
2023/06/28 03:39:59;;;;;;;3.07;2.00;;;23.10;62.90;;;;;;5034444;28;20202;-74
2023/06/28 03:42:27;;;;;;;3.17;2.30;;;23.10;61.80;;;;;;5033544;28;20214;-75
2023/06/28 03:44:54;;;;;;;4.00;2.57;;;23.00;61.50;;;;;;5034263;28;20230;-73
2023/06/28 03:47:21;;;;;;;2.40;2.17;;;23.10;61.40;;;;;;5034531;28;20666;-74
2023/06/28 03:49:48;;;;;;;2.13;1.87;;;23.10;61.70;;;;;;5029326;28;20229;-74
2023/06/28 03:52:15;;;;;;;3.90;2.17;;;23.10;61.80;;;;;;5024506;28;20226;-75
2023/06/28 03:54:42;;;;;;;2.97;2.60;;;23.10;61.80;;;;;;5014203;28;20215;-75
2023/06/28 03:57:09;;;;;;;2.47;2.13;;;23.10;62.20;;;;;;5014508;28;20238;-75
2023/06/28 03:59:37;;;;;;;2.53;2.23;;;23.20;62.50;;;;;;5033071;28;20567;-73
2023/06/28 04:02:04;;;;;;;3.00;2.27;;;23.20;62.80;;;;;;5008573;28;20206;-74
2023/06/28 04:04:33;;;;;;;3.20;2.20;;;23.20;62.90;;;;;;5014782;28;20284;-74
2023/06/28 04:07:00;;;;;;;4.73;2.57;;;23.20;62.90;;;;;;4995153;28;20199;-75
2023/06/28 04:09:27;;;;;;;3.87;2.40;;;23.20;62.40;;;;;;5027297;28;20215;-75
2023/06/28 04:11:54;;;;;;;2.60;2.33;;;23.10;62.20;;;;;;5035711;28;20559;-74
2023/06/28 04:14:22;;;;;;;2.87;2.23;;;23.20;62.50;;;;;;5028023;28;20203;-76
2023/06/28 04:16:51;;;;;;;4.07;2.47;;;23.10;62.30;;;;;;5037193;28;20316;-74
2023/06/28 04:19:18;;;;;;;3.27;2.30;;;23.10;62.00;;;;;;5030283;28;20840;-75
2023/06/28 04:21:44;;;;;;;4.13;2.43;;;23.20;61.30;;;;;;5019327;28;20199;-75
2023/06/28 04:24:11;;;;;;;3.60;2.20;;;23.20;60.40;;;;;;5021355;28;20210;-75
2023/06/28 04:26:38;;;;;;;4.80;2.50;;;23.20;61.00;;;;;;5021842;28;20206;-74
2023/06/28 04:29:05;;;;;;;6.70;2.93;;;23.20;62.50;;;;;;5030349;28;20230;-76
2023/06/28 04:31:32;;;;;;;7.17;2.77;;;23.30;64.10;;;;;;4993730;28;20202;-74
2023/06/28 04:34:00;;;;;;;3.70;2.53;;;23.30;65.20;;;;;;5021645;28;20217;-73
2023/06/28 04:36:28;;;;;;;5.17;2.60;;;23.20;65.60;;;;;;5033435;28;20236;-74
2023/06/28 04:38:55;;;;;;;4.53;3.10;;;23.20;65.60;;;;;;5022061;28;20203;-75
2023/06/28 04:41:25;;;;;;;2.87;2.33;;;23.20;65.80;;;;;;5013593;28;20575;-75
2023/06/28 04:43:54;;;;;;;5.60;2.70;;;23.20;66.10;;;;;;5021513;28;20323;-74
2023/06/28 04:46:22;;;;;;;5.80;2.47;;;23.10;66.30;;;;;;5012908;28;20239;-75
2023/06/28 04:48:49;;;;;;;3.53;2.60;;;23.20;66.80;;;;;;5013212;28;20231;-74
2023/06/28 04:51:18;;;;;;;4.00;3.30;;;23.10;67.00;;;;;;5017080;28;20208;-75
2023/06/28 04:53:46;;;;;;;2.97;2.43;;;23.10;67.40;;;;;;5031258;28;20200;-73
2023/06/28 04:56:13;;;;;;;3.80;2.77;;;23.10;67.40;;;;;;5033203;28;20227;-73
2023/06/28 04:58:40;;;;;;;6.57;3.17;;;23.10;67.20;;;;;;5032922;28;20233;-74
2023/06/28 05:01:07;;;;;;;7.30;3.00;;;23.10;67.40;;;;;;5029998;28;20268;-74
2023/06/28 05:03:34;;;;;;;8.20;3.40;;;23.10;67.50;;;;;;5014313;28;20601;-74
2023/06/28 05:06:02;;;;;;;6.37;3.70;;;23.20;68.50;;;;;;5031557;28;20756;-74
2023/06/28 05:08:30;;;;;;;12.67;5.37;;;23.20;67.90;;;;;;5033466;28;20234;-74
2023/06/28 05:10:57;;;;;;;6.00;4.00;;;23.20;68.00;;;;;;5014338;28;20207;-73
2023/06/28 05:13:24;;;;;;;9.07;4.13;;;23.20;68.00;;;;;;5033376;28;20310;-74
2023/06/28 05:15:50;;;;;;;11.10;4.37;;;23.20;68.00;;;;;;4997941;28;20228;-74
2023/06/28 05:18:18;;;;;;;14.30;4.17;;;23.20;68.00;;;;;;5033544;28;20205;-74
2023/06/28 05:20:45;;;;;;;5.63;2.90;;;23.20;67.40;;;;;;5032892;28;20244;-73
2023/06/28 05:23:13;;;;;;;8.93;3.80;;;23.20;67.30;;;;;;5013881;28;20223;-73
2023/06/28 05:25:42;;;;;;;5.57;3.00;;;23.20;66.60;;;;;;5026800;28;20199;-72
2023/06/28 05:28:12;;;;;;;5.70;2.43;;;23.20;65.70;;;;;;5033060;28;20230;-74
2023/06/28 05:30:39;;;;;;;3.23;2.33;;;23.20;65.60;;;;;;5032945;28;20222;-73
2023/06/28 05:33:06;;;;;;;4.83;2.50;;;23.30;65.70;;;;;;5014752;28;20212;-73
2023/06/28 05:35:33;;;;;;;2.90;2.30;;;23.30;65.70;;;;;;5013190;28;20210;-73
2023/06/28 05:38:00;;;;;;;3.57;2.50;;;23.30;66.00;;;;;;5013407;28;20210;-73
2023/06/28 05:40:27;;;;;;;4.20;2.83;;;23.30;65.70;;;;;;5013510;28;20218;-73
2023/06/28 05:42:57;;;;;;;4.80;3.00;;;23.30;65.70;;;;;;5022442;28;20202;-72
2023/06/28 05:45:24;;;;;;;4.43;2.60;;;23.30;66.00;;;;;;5024356;28;20205;-72
2023/06/28 05:47:51;;;;;;;3.50;2.60;;;23.20;66.20;;;;;;5013117;28;20241;-72
2023/06/28 05:50:20;;;;;;;4.17;2.70;;;23.20;67.10;;;;;;5013962;28;20221;-74
2023/06/28 05:52:47;;;;;;;5.33;2.50;;;23.30;67.70;;;;;;5013776;28;20686;-73
2023/06/28 05:55:14;;;;;;;4.20;2.37;;;23.30;67.30;;;;;;5025002;28;20214;-73
2023/06/28 05:57:41;;;;;;;4.27;2.70;;;23.30;67.10;;;;;;5032212;28;20216;-71
2023/06/28 06:00:11;;;;;;;2.80;2.40;;;23.40;66.90;;;;;;5014724;28;20305;-72
2023/06/28 06:02:38;;;;;;;4.00;2.60;;;23.40;66.10;;;;;;5012806;28;20566;-70
2023/06/28 06:05:05;;;;;;;4.87;2.70;;;23.40;65.20;;;;;;5032553;28;20240;-72
2023/06/28 06:07:39;;;;;;;4.33;2.73;;;23.50;65.40;;;;;;5031702;28;20222;-71
2023/06/28 06:10:08;;;;;;;3.33;2.43;;;23.50;65.20;;;;;;5031511;28;20316;-72
2023/06/28 06:12:35;;;;;;;3.53;2.30;;;23.50;65.20;;;;;;5020010;28;20587;-72
2023/06/28 06:15:03;;;;;;;4.20;3.03;;;23.60;64.20;;;;;;5012264;28;20211;-72
2023/06/28 06:17:31;;;;;;;4.03;2.50;;;23.60;62.80;;;;;;5011881;28;20210;-72
2023/06/28 06:19:58;;;;;;;3.07;2.30;;;23.70;62.50;;;;;;5011860;28;20230;-72
2023/06/28 06:22:24;;;;;;;4.67;2.57;;;23.70;62.50;;;;;;5021995;28;20214;-72
2023/06/28 06:24:51;;;;;;;5.07;2.57;;;23.70;63.10;;;;;;5031112;28;20213;-71
2023/06/28 06:27:18;;;;;;;6.13;2.40;;;23.80;63.20;;;;;;5031670;28;20202;-72
2023/06/28 06:29:45;;;;;;;5.67;2.60;;;23.80;63.10;;;;;;5031294;28;20218;-72
2023/06/28 06:32:12;;;;;;;4.20;2.77;;;23.80;63.00;;;;;;5030919;28;20222;-73
2023/06/28 06:34:40;;;;;;;4.00;2.50;;;23.80;63.10;;;;;;5031142;28;20207;-72
2023/06/28 06:37:11;;;;;;;4.97;2.83;;;23.90;63.70;;;;;;5031585;28;20206;-72
2023/06/28 06:39:39;;;;;;;5.27;2.50;;;23.90;63.10;;;;;;5031178;28;20604;-72
2023/06/28 06:42:06;;;;;;;5.30;2.90;;;23.90;62.30;;;;;;5026176;28;20222;-72
2023/06/28 06:44:33;;;;;;;4.57;2.50;;;23.90;62.00;;;;;;5031245;28;20202;-72
2023/06/28 06:47:00;;;;;;;2.90;2.60;;;24.00;61.00;;;;;;4979642;28;20198;-72
2023/06/28 06:49:27;;;;;;;5.13;2.60;;;24.00;60.00;;;;;;5031006;28;20214;-72
2023/06/28 06:51:55;;;;;;;2.70;2.40;;;24.00;59.70;;;;;;5025312;28;20238;-72
2023/06/28 06:54:22;;;;;;;7.73;3.17;;;24.10;60.00;;;;;;5011004;28;20211;-72
2023/06/28 06:56:49;;;;;;;4.37;3.13;;;24.10;59.50;;;;;;5011572;28;20305;-70
2023/06/28 06:59:16;;;;;;;4.47;2.67;;;24.10;59.10;;;;;;5011356;28;20220;-72
2023/06/28 07:01:43;;;;;;;3.87;2.57;;;24.20;58.80;;;;;;5015769;28;20530;-71
2023/06/28 07:04:10;;;;;;;3.37;2.33;;;24.20;58.90;;;;;;5030901;28;20283;-71
2023/06/28 07:06:37;;;;;;;3.80;2.50;;;24.20;58.60;;;;;;5030724;28;20230;-71
2023/06/28 07:09:06;;;;;;;3.40;2.70;;;24.30;59.00;;;;;;5033436;28;20206;-72
2023/06/28 07:11:33;;;;;;;3.73;2.63;;;24.30;59.40;;;;;;5032647;28;20288;-72
2023/06/28 07:14:00;;;;;;;5.23;3.03;;;24.30;59.40;;;;;;5027359;28;20249;-73
2023/06/28 07:16:27;;;;;;;4.83;2.60;;;24.40;59.50;;;;;;5014736;28;20227;-71
2023/06/28 07:18:54;;;;;;;5.53;2.80;;;24.40;59.90;;;;;;5014466;28;20223;-71
2023/06/28 07:21:21;;;;;;;5.27;2.70;;;24.40;59.70;;;;;;5015111;28;20219;-71
2023/06/28 07:23:48;;;;;;;5.17;2.47;;;24.50;59.50;;;;;;5034654;28;20320;-72
2023/06/28 07:26:17;;;;;;;4.57;2.63;;;24.50;59.30;;;;;;5034811;28;20590;-72
2023/06/28 07:28:44;;;;;;;3.37;2.40;;;24.60;59.20;;;;;;5034515;28;20222;-71
2023/06/28 07:31:11;;;;;;;3.90;2.67;;;24.60;58.70;;;;;;5034515;28;20915;-72
2023/06/28 07:33:38;;;;;;;5.60;2.50;;;24.60;59.00;;;;;;5015611;28;20211;-72
2023/06/28 07:36:05;;;;;;;4.53;2.50;;;24.70;59.30;;;;;;5015796;28;20595;-72
2023/06/28 07:38:32;;;;;;;4.63;2.53;;;24.80;59.60;;;;;;5023534;28;20289;-70
2023/06/28 07:40:59;;;;;;;5.33;2.40;;;24.80;59.00;;;;;;5034397;28;20658;-72
2023/06/28 07:43:28;;;;;;;5.80;2.53;;;24.90;58.80;;;;;;5034268;28;20325;-71
2023/06/28 07:45:59;;;;;;;4.60;2.87;;;24.90;59.20;;;;;;5034227;28;20222;-72
2023/06/28 07:48:26;;;;;;;5.33;2.90;;;24.90;59.00;;;;;;5033791;28;20265;-72
2023/06/28 07:50:53;;;;;;;5.40;2.57;;;25.00;58.80;;;;;;5034030;28;20214;-71
2023/06/28 07:53:20;;;;;;;3.10;2.70;;;25.10;58.60;;;;;;5034007;28;20216;-71
2023/06/28 07:55:47;;;;;;;2.77;2.20;;;25.10;58.90;;;;;;5034043;28;20258;-71
2023/06/28 07:58:14;;;;;;;2.93;2.53;;;25.20;59.00;;;;;;5028550;28;20286;-71
2023/06/28 08:00:42;;;;;;;3.77;2.50;;;25.20;58.90;;;;;;5014405;28;20207;-71
2023/06/28 08:03:09;;;;;;;4.20;2.50;;;25.30;58.90;;;;;;4996886;28;20317;-71
2023/06/28 08:05:36;;;;;;;5.00;2.80;;;25.30;59.00;;;;;;5013829;28;20211;-71
2023/06/28 08:08:03;;;;;;;3.20;2.27;;;25.40;58.40;;;;;;5015530;28;20232;-72
2023/06/28 08:10:30;;;;;;;7.00;2.60;;;25.40;58.30;;;;;;5021484;28;20558;-72
2023/06/28 08:12:57;;;;;;;4.33;2.10;;;25.50;58.40;;;;;;5033758;28;20937;-72
2023/06/28 08:15:24;;;;;;;6.53;2.73;;;25.50;57.70;;;;;;5033739;28;20230;-71
2023/06/28 08:17:52;;;;;;;4.87;2.40;;;25.60;57.70;;;;;;5031348;28;20310;-72
2023/06/28 08:20:19;;;;;;;6.27;2.53;;;25.60;57.20;;;;;;5013759;28;20315;-71
2023/06/28 08:22:46;;;;;;;4.57;2.07;;;25.70;56.60;;;;;;5014072;28;20734;-71
2023/06/28 08:25:13;;;;;;;6.97;2.33;;;25.80;56.40;;;;;;5013758;28;20214;-73
2023/06/28 08:27:40;;;;;;;5.90;2.20;;;25.90;55.60;;;;;;5013665;28;20700;-72
2023/06/28 08:30:08;;;;;;;4.23;2.43;;;26.00;54.90;;;;;;5017650;28;20289;-71
2023/06/28 08:32:35;;;;;;;3.60;1.93;;;26.10;54.70;;;;;;5013555;28;20208;-71
2023/06/28 08:35:05;;;;;;;3.30;2.60;;;26.20;55.00;;;;;;5013196;28;20242;-71
2023/06/28 08:37:34;;;;;;;4.50;2.60;;;26.30;54.60;;;;;;5013853;28;20203;-71
2023/06/28 08:40:01;;;;;;;2.67;2.20;;;26.30;52.40;;;;;;5025336;28;20290;-72
2023/06/28 08:42:29;;;;;;;3.07;2.13;;;26.30;51.10;;;;;;5018831;28;20290;-72
2023/06/28 08:44:58;;;;;;;4.13;2.23;;;26.20;51.30;;;;;;5032962;28;20749;-72
2023/06/28 08:47:28;;;;;;;4.63;1.80;;;26.30;52.10;;;;;;5033080;28;20246;-70
2023/06/28 08:49:56;;;;;;;4.77;2.37;;;26.30;52.50;;;;;;5034929;28;20627;-72
2023/06/28 08:52:26;;;;;;;5.50;2.43;;;26.40;52.80;;;;;;5023242;28;20233;-72
2023/06/28 08:54:54;;;;;;;4.73;2.10;;;26.50;53.00;;;;;;5014710;28;20267;-71
2023/06/28 08:57:22;;;;;;;4.13;2.03;;;26.60;52.90;;;;;;5013335;28;20203;-71
2023/06/28 08:59:52;;;;;;;6.40;2.50;;;26.70;52.70;;;;;;4995793;28;20565;-72
2023/06/28 09:02:19;;;;;;;5.30;2.30;;;26.70;50.30;;;;;;4997869;28;20231;-71
2023/06/28 09:04:48;;;;;;;3.30;2.03;;;26.60;50.50;;;;;;5017498;28;20210;-71
2023/06/28 09:07:16;;;;;;;5.03;1.93;;;26.70;49.90;;;;;;5016911;28;20240;-71
2023/06/28 09:09:48;;;;;;;4.53;2.30;;;26.80;50.80;;;;;;5033244;28;20677;-72
2023/06/28 09:12:16;;;;;;;3.57;2.53;;;26.90;51.60;;;;;;5029347;28;20710;-71
2023/06/28 09:14:43;;;;;;;3.30;2.07;;;27.10;50.90;;;;;;5035720;28;20562;-71
2023/06/28 09:17:10;;;;;;;4.40;2.40;;;27.20;50.20;;;;;;5036413;28;20223;-72
2023/06/28 09:19:37;;;;;;;3.27;2.10;;;27.30;49.90;;;;;;5033885;28;20224;-73
2023/06/28 09:22:04;;;;;;;7.70;2.60;;;27.40;50.20;;;;;;5032582;28;20206;-74
2023/06/28 09:24:34;;;;;;;3.40;2.13;;;27.50;48.80;;;;;;5032409;28;20202;-73
2023/06/28 09:27:04;;;;;;;5.10;2.10;;;27.60;49.00;;;;;;5032390;28;20243;-71
2023/06/28 09:29:31;;;;;;;7.13;2.20;;;27.70;49.40;;;;;;5014074;28;20223;-73
2023/06/28 09:32:00;;;;;;;2.80;2.10;;;27.80;49.00;;;;;;5012150;28;20595;-72
2023/06/28 09:34:27;;;;;;;3.77;2.33;;;27.90;48.60;;;;;;5012377;28;20228;-72
2023/06/28 09:36:55;;;;;;;3.80;2.13;;;28.00;47.90;;;;;;5012410;28;20212;-73
2023/06/28 09:39:23;;;;;;;6.07;2.50;;;28.10;48.30;;;;;;5030717;28;20230;-71
2023/06/28 09:41:50;;;;;;;2.63;2.07;;;28.20;48.20;;;;;;5032524;28;20213;-72
2023/06/28 09:44:27;;;;;;;4.87;2.53;;;28.40;47.70;;;;;;5032206;28;20655;-72
2023/06/28 09:47:00;;;;;;;5.17;2.33;;;28.60;46.20;;;;;;5032029;28;20198;-72
2023/06/28 09:49:27;;;;;;;3.50;2.20;;;28.60;47.80;;;;;;5031203;28;20209;-71
2023/06/28 09:52:01;;;;;;;4.07;2.37;;;28.80;46.80;;;;;;5032446;28;20236;-72
2023/06/28 09:54:32;;;;;;;3.33;2.20;;;28.90;47.50;;;;;;5032132;28;20247;-73
2023/06/28 09:57:00;;;;;;;5.00;2.30;;;28.90;44.40;;;;;;5033019;28;20455;-71
2023/06/28 09:59:32;;;;;;;3.67;2.17;;;28.80;44.20;;;;;;5014979;28;20203;-71
2023/06/28 10:01:59;;;;;;;4.20;2.20;;;28.60;43.90;;;;;;5013000;28;20225;-72
2023/06/28 10:04:29;;;;;;;3.73;2.60;;;28.60;44.50;;;;;;4977903;28;20824;-71
2023/06/28 10:07:02;;;;;;;3.83;2.17;;;28.50;44.20;;;;;;5012881;28;20748;-72
2023/06/28 10:09:34;;;;;;;2.20;2.00;;;28.50;45.50;;;;;;5030960;28;20224;-72
2023/06/28 10:12:03;;;;;;;3.70;2.10;;;28.70;45.60;;;;;;5031944;28;20221;-72
2023/06/28 10:14:37;;;;;;;3.60;2.63;;;28.80;44.60;;;;;;5031760;28;20784;-71
2023/06/28 10:17:05;;;;;;;5.43;2.50;;;28.70;43.40;;;;;;5031655;28;20189;-72
2023/06/28 10:19:33;;;;;;;4.90;2.47;;;28.70;44.90;;;;;;4976170;28;20228;-70
2023/06/28 10:22:01;;;;;;;3.43;2.50;;;28.80;44.20;;;;;;5012355;28;20205;-72
2023/06/28 10:24:32;;;;;;;2.93;2.30;;;28.60;43.80;;;;;;5011964;28;20227;-72
2023/06/28 10:27:00;;;;;;;3.43;2.27;;;28.60;43.80;;;;;;5011789;28;20203;-71
2023/06/28 10:29:27;;;;;;;2.90;2.20;;;28.60;44.10;;;;;;5029954;28;20255;-72
2023/06/28 10:31:56;;;;;;;5.83;2.80;;;28.70;43.90;;;;;;5031086;28;20229;-72
2023/06/28 10:34:23;;;;;;;4.00;2.60;;;28.60;43.20;;;;;;5031534;28;20202;-71
2023/06/28 10:36:50;;;;;;;2.80;2.03;;;28.60;43.30;;;;;;5031481;28;20561;-72
2023/06/28 10:39:17;;;;;;;4.30;2.27;;;28.60;43.50;;;;;;5018662;28;20298;-71
2023/06/28 10:41:44;;;;;;;3.97;2.10;;;28.60;43.40;;;;;;5032172;28;20211;-72
2023/06/28 10:44:11;;;;;;;4.70;2.13;;;28.70;43.90;;;;;;5033897;28;20226;-73
2023/06/28 10:46:38;;;;;;;3.10;2.43;;;28.80;44.70;;;;;;5035130;28;20217;-73
2023/06/28 10:49:06;;;;;;;3.17;2.10;;;28.90;45.00;;;;;;5034899;28;20232;-72
2023/06/28 10:51:34;;;;;;;4.10;2.10;;;29.10;45.10;;;;;;5035443;28;20224;-71
2023/06/28 10:54:09;;;;;;;3.97;2.13;;;29.20;43.90;;;;;;5035041;28;20217;-72
2023/06/28 10:56:39;;;;;;;2.80;2.27;;;29.20;44.00;;;;;;5035171;28;20271;-72
2023/06/28 10:59:07;;;;;;;4.37;2.37;;;29.40;44.60;;;;;;5021482;28;20215;-72
2023/06/28 11:01:37;;;;;;;3.13;2.20;;;29.40;43.20;;;;;;4980121;28;20237;-73
2023/06/28 11:04:18;;;;;;;5.10;2.30;;;29.40;42.70;;;;;;5015288;28;20207;-72
2023/06/28 11:06:45;;;;;;;4.37;2.30;;;29.40;43.50;;;;;;5015478;28;20208;-73
2023/06/28 11:09:19;;;;;;;4.10;2.33;;;29.50;44.10;;;;;;5015644;28;20226;-72
2023/06/28 11:11:58;;;;;;;2.53;2.10;;;29.60;43.10;;;;;;5016245;28;20221;-72
2023/06/28 11:14:26;;;;;;;3.83;2.43;;;29.70;42.60;;;;;;5020559;28;20576;-72
2023/06/28 11:17:01;;;;;;;3.80;2.10;;;29.70;43.00;;;;;;5014993;28;20301;-73
2023/06/28 11:19:29;;;;;;;5.17;2.37;;;29.80;43.00;;;;;;5030354;28;20222;-71
2023/06/28 11:21:57;;;;;;;3.60;2.30;;;29.60;41.30;;;;;;5034950;28;20222;-72
2023/06/28 11:24:43;;;;;;;2.83;2.20;;;29.40;42.20;;;;;;5034855;28;20221;-71
2023/06/28 11:27:12;;;;;;;4.37;2.63;;;29.40;42.00;;;;;;5034331;28;20677;-72
2023/06/28 11:29:57;;;;;;;2.60;2.27;;;29.40;42.40;;;;;;5032260;28;20632;-72
2023/06/28 11:32:26;;;;;;;3.17;2.13;;;29.40;41.80;;;;;;5031342;28;20704;-72
2023/06/28 11:34:57;;;;;;;3.73;2.47;;;29.40;41.80;;;;;;5034587;28;20230;-72
2023/06/28 11:37:24;;;;;;;5.60;2.63;;;29.40;41.40;;;;;;5034517;28;20213;-72
2023/06/28 11:39:52;;;;;;;3.23;2.50;;;29.50;41.80;;;;;;5034608;28;20206;-72
2023/06/28 11:42:19;;;;;;;3.97;2.70;;;29.60;41.80;;;;;;5035262;28;20230;-71
2023/06/28 11:44:47;;;;;;;3.17;2.23;;;29.70;41.40;;;;;;5034285;28;20856;-70
2023/06/28 11:47:16;;;;;;;4.23;2.20;;;29.80;42.90;;;;;;5034435;28;20226;-73
2023/06/28 11:49:44;;;;;;;4.03;2.40;;;30.00;41.60;;;;;;5033671;28;20313;-71
2023/06/28 11:52:12;;;;;;;3.23;2.20;;;30.00;41.00;;;;;;5033886;28;20234;-71
2023/06/28 11:54:42;;;;;;;3.80;2.50;;;30.10;40.90;;;;;;5033435;28;20241;-72
2023/06/28 11:57:09;;;;;;;3.00;2.20;;;30.20;42.00;;;;;;5034310;28;20279;-72
2023/06/28 11:59:37;;;;;;;3.97;2.47;;;30.40;43.20;;;;;;5032428;28;20213;-72
2023/06/28 12:02:06;;;;;;;2.77;2.00;;;30.60;41.90;;;;;;5014718;28;20274;-73
2023/06/28 12:04:34;;;;;;;3.80;2.10;;;30.70;40.40;;;;;;5014229;28;20211;-73
2023/06/28 12:07:04;;;;;;;4.63;2.40;;;30.80;40.90;;;;;;5014086;28;20709;-72
2023/06/28 12:09:34;;;;;;;2.53;2.07;;;31.00;41.20;;;;;;5014107;28;20301;-71
2023/06/28 12:12:04;;;;;;;5.07;2.43;;;31.10;41.30;;;;;;5014565;28;20211;-72
2023/06/28 12:14:38;;;;;;;4.53;2.17;;;31.30;40.80;;;;;;5016430;28;20695;-71
2023/06/28 12:17:06;;;;;;;2.40;2.10;;;31.40;38.80;;;;;;5033689;28;20193;-72
2023/06/28 12:19:33;;;;;;;2.93;2.03;;;31.50;41.00;;;;;;5032953;28;20321;-73
2023/06/28 12:22:02;;;;;;;2.63;1.90;;;31.50;40.90;;;;;;5014288;28;20207;-71
2023/06/28 12:24:29;;;;;;;4.93;2.30;;;31.30;38.10;;;;;;5013840;28;20211;-71
2023/06/28 12:26:59;;;;;;;3.03;2.00;;;31.10;38.10;;;;;;4996678;28;20285;-72
2023/06/28 12:29:29;;;;;;;3.30;2.30;;;31.00;39.20;;;;;;5013665;28;20578;-72
2023/06/28 12:31:58;;;;;;;5.30;2.00;;;31.00;39.20;;;;;;5030225;28;20325;-71
2023/06/28 12:34:26;;;;;;;2.93;2.03;;;30.90;38.30;;;;;;5033684;28;20278;-72
2023/06/28 12:36:55;;;;;;;2.47;2.03;;;30.80;38.90;;;;;;5033997;28;20241;-72
2023/06/28 12:39:23;;;;;;;3.03;1.80;;;30.80;40.70;;;;;;5033466;28;20226;-72
2023/06/28 12:42:05;;;;;;;2.63;1.90;;;30.80;39.60;;;;;;5019338;28;20693;-72
2023/06/28 12:44:49;;;;;;;2.93;2.20;;;30.80;39.90;;;;;;5033183;28;20191;-73
2023/06/28 12:47:17;;;;;;;2.80;1.80;;;30.80;39.90;;;;;;5033170;28;20240;-71
2023/06/28 12:49:44;;;;;;;4.33;1.90;;;30.80;40.10;;;;;;5032293;28;20309;-73